sensor_id;sensor_type;location;lat;lon;timestamp;pressure;altitude;pressure_sealevel;temperature;humidity
48824;BME280;34640;53.590;10.054;2023-12-14T00:02:21;100529.56;;;4.94;100.00
48824;BME280;34640;53.590;10.054;2023-12-14T00:04:54;100530.25;;;4.91;100.00
48824;BME280;34640;53.590;10.054;2023-12-14T00:07:27;100539.84;;;4.82;100.00
48824;BME280;34640;53.590;10.054;2023-12-14T00:09:59;100540.88;;;4.84;100.00
48824;BME280;34640;53.590;10.054;2023-12-14T00:12:35;100541.88;;;4.86;100.00
48824;BME280;34640;53.590;10.054;2023-12-14T00:15:08;100546.69;;;4.82;100.00
48824;BME280;34640;53.590;10.054;2023-12-14T00:17:41;100553.53;;;4.81;100.00
48824;BME280;34640;53.590;10.054;2023-12-14T00:20:14;100557.00;;;4.82;100.00
48824;BME280;34640;53.590;10.054;2023-12-14T00:22:48;100563.72;;;4.80;100.00
48824;BME280;34640;53.590;10.054;2023-12-14T00:25:21;100567.44;;;4.83;100.00
48824;BME280;34640;53.590;10.054;2023-12-14T00:27:55;100556.66;;;4.77;100.00
48824;BME280;34640;53.590;10.054;2023-12-14T00:30:28;100560.41;;;4.93;100.00
48824;BME280;34640;53.590;10.054;2023-12-14T00:33:01;100564.13;;;4.96;100.00
48824;BME280;34640;53.590;10.054;2023-12-14T00:35:34;100574.88;;;4.90;100.00
48824;BME280;34640;53.590;10.054;2023-12-14T00:38:07;100578.25;;;4.89;100.00
48824;BME280;34640;53.590;10.054;2023-12-14T00:40:40;100590.06;;;4.98;100.00
48824;BME280;34640;53.590;10.054;2023-12-14T00:43:15;100589.03;;;4.96;100.00
48824;BME280;34640;53.590;10.054;2023-12-14T00:45:48;100596.72;;;5.06;100.00
48824;BME280;34640;53.590;10.054;2023-12-14T00:48:22;100610.22;;;5.13;100.00
48824;BME280;34640;53.590;10.054;2023-12-14T00:50:55;100611.00;;;5.12;100.00
48824;BME280;34640;53.590;10.054;2023-12-14T00:53:28;100626.50;;;5.12;100.00
48824;BME280;34640;53.590;10.054;2023-12-14T00:56:01;100629.19;;;5.14;100.00
48824;BME280;34640;53.590;10.054;2023-12-14T00:58:35;100620.28;;;5.20;100.00
48824;BME280;34640;53.590;10.054;2023-12-14T01:01:09;100627.28;;;5.11;100.00
48824;BME280;34640;53.590;10.054;2023-12-14T01:03:42;100624.94;;;5.14;100.00
48824;BME280;34640;53.590;10.054;2023-12-14T01:06:14;100623.00;;;5.12;100.00
48824;BME280;34640;53.590;10.054;2023-12-14T01:08:48;100621.22;;;5.11;100.00
48824;BME280;34640;53.590;10.054;2023-12-14T01:11:21;100631.06;;;5.27;100.00
48824;BME280;34640;53.590;10.054;2023-12-14T01:13:55;100630.06;;;5.25;100.00
48824;BME280;34640;53.590;10.054;2023-12-14T01:16:28;100631.84;;;5.26;100.00
48824;BME280;34640;53.590;10.054;2023-12-14T01:19:01;100634.00;;;5.31;100.00
48824;BME280;34640;53.590;10.054;2023-12-14T01:21:34;100639.53;;;5.36;100.00
48824;BME280;34640;53.590;10.054;2023-12-14T01:24:07;100645.13;;;5.30;100.00
48824;BME280;34640;53.590;10.054;2023-12-14T01:26:40;100650.97;;;5.39;100.00
48824;BME280;34640;53.590;10.054;2023-12-14T01:29:14;100649.25;;;5.28;100.00
48824;BME280;34640;53.590;10.054;2023-12-14T01:31:47;100656.53;;;5.22;100.00
48824;BME280;34640;53.590;10.054;2023-12-14T01:34:20;100673.94;;;5.25;100.00
48824;BME280;34640;53.590;10.054;2023-12-14T01:36:53;100666.13;;;5.35;100.00
48824;BME280;34640;53.590;10.054;2023-12-14T01:39:27;100668.03;;;5.37;100.00
48824;BME280;34640;53.590;10.054;2023-12-14T01:41:59;100670.56;;;5.26;100.00
48824;BME280;34640;53.590;10.054;2023-12-14T01:44:34;100675.50;;;5.22;100.00
48824;BME280;34640;53.590;10.054;2023-12-14T01:47:07;100678.19;;;5.24;100.00
48824;BME280;34640;53.590;10.054;2023-12-14T01:49:40;100687.63;;;5.24;100.00
48824;BME280;34640;53.590;10.054;2023-12-14T01:52:14;100688.75;;;5.27;100.00
48824;BME280;34640;53.590;10.054;2023-12-14T01:54:47;100689.44;;;5.25;100.00
48824;BME280;34640;53.590;10.054;2023-12-14T01:57:20;100690.31;;;5.25;100.00
48824;BME280;34640;53.590;10.054;2023-12-14T01:59:54;100685.94;;;5.24;100.00
48824;BME280;34640;53.590;10.054;2023-12-14T02:02:27;100690.22;;;5.24;100.00
48824;BME280;34640;53.590;10.054;2023-12-14T02:05:01;100693.81;;;5.26;100.00
48824;BME280;34640;53.590;10.054;2023-12-14T02:07:34;100693.16;;;5.28;100.00
48824;BME280;34640;53.590;10.054;2023-12-14T02:10:08;100693.38;;;5.31;100.00
48824;BME280;34640;53.590;10.054;2023-12-14T02:12:41;100685.03;;;5.24;100.00
48824;BME280;34640;53.590;10.054;2023-12-14T02:15:15;100688.53;;;5.24;100.00
48824;BME280;34640;53.590;10.054;2023-12-14T02:17:48;100702.22;;;5.23;100.00
48824;BME280;34640;53.590;10.054;2023-12-14T02:20:21;100707.00;;;5.18;100.00
48824;BME280;34640;53.590;10.054;2023-12-14T02:22:57;100702.22;;;5.23;100.00
48824;BME280;34640;53.590;10.054;2023-12-14T02:25:31;100707.75;;;5.17;100.00
48824;BME280;34640;53.590;10.054;2023-12-14T02:28:04;100707.66;;;5.16;100.00
48824;BME280;34640;53.590;10.054;2023-12-14T02:30:36;100708.53;;;5.16;100.00
48824;BME280;34640;53.590;10.054;2023-12-14T02:33:10;100716.28;;;5.16;100.00
48824;BME280;34640;53.590;10.054;2023-12-14T02:35:43;100711.13;;;5.16;100.00
48824;BME280;34640;53.590;10.054;2023-12-14T02:38:17;100716.94;;;5.24;100.00
48824;BME280;34640;53.590;10.054;2023-12-14T02:40:50;100722.47;;;5.18;100.00
48824;BME280;34640;53.590;10.054;2023-12-14T02:43:24;100725.16;;;5.20;100.00
48824;BME280;34640;53.590;10.054;2023-12-14T02:45:57;100728.69;;;5.20;100.00
48824;BME280;34640;53.590;10.054;2023-12-14T02:48:34;100734.25;;;5.15;100.00
48824;BME280;34640;53.590;10.054;2023-12-14T02:51:08;100732.03;;;5.19;100.00
48824;BME280;34640;53.590;10.054;2023-12-14T02:53:46;100731.00;;;5.17;100.00
48824;BME280;34640;53.590;10.054;2023-12-14T02:56:19;100740.31;;;5.15;100.00
48824;BME280;34640;53.590;10.054;2023-12-14T02:58:52;100738.13;;;5.10;100.00
48824;BME280;34640;53.590;10.054;2023-12-14T03:01:26;100736.94;;;5.16;100.00
48824;BME280;34640;53.590;10.054;2023-12-14T03:03:59;100743.91;;;5.17;100.00
48824;BME280;34640;53.590;10.054;2023-12-14T03:06:33;100740.97;;;5.13;100.00
48824;BME280;34640;53.590;10.054;2023-12-14T03:09:07;100756.94;;;5.19;100.00
48824;BME280;34640;53.590;10.054;2023-12-14T03:11:42;100745.81;;;5.20;100.00
48824;BME280;34640;53.590;10.054;2023-12-14T03:14:18;100750.25;;;5.21;100.00
48824;BME280;34640;53.590;10.054;2023-12-14T03:16:51;100755.66;;;5.24;100.00
48824;BME280;34640;53.590;10.054;2023-12-14T03:19:24;100762.84;;;5.28;100.00
48824;BME280;34640;53.590;10.054;2023-12-14T03:21:57;100762.25;;;5.20;100.00
48824;BME280;34640;53.590;10.054;2023-12-14T03:24:31;100773.59;;;5.22;100.00
48824;BME280;34640;53.590;10.054;2023-12-14T03:27:04;100776.19;;;5.22;100.00
48824;BME280;34640;53.590;10.054;2023-12-14T03:29:37;100777.19;;;5.25;100.00
48824;BME280;34640;53.590;10.054;2023-12-14T03:32:10;100783.25;;;5.25;100.00
48824;BME280;34640;53.590;10.054;2023-12-14T03:34:43;100772.94;;;5.25;100.00
48824;BME280;34640;53.590;10.054;2023-12-14T03:37:16;100781.03;;;5.30;100.00
48824;BME280;34640;53.590;10.054;2023-12-14T03:39:50;100788.00;;;5.31;100.00
48824;BME280;34640;53.590;10.054;2023-12-14T03:42:23;100792.41;;;5.32;100.00
48824;BME280;34640;53.590;10.054;2023-12-14T03:44:57;100794.84;;;5.30;100.00
48824;BME280;34640;53.590;10.054;2023-12-14T03:47:30;100789.69;;;5.30;100.00
48824;BME280;34640;53.590;10.054;2023-12-14T03:50:03;100787.66;;;5.26;100.00
48824;BME280;34640;53.590;10.054;2023-12-14T03:52:37;100787.88;;;5.29;100.00
48824;BME280;34640;53.590;10.054;2023-12-14T03:55:11;100794.84;;;5.30;100.00
48824;BME280;34640;53.590;10.054;2023-12-14T03:57:47;100803.88;;;5.35;100.00
48824;BME280;34640;53.590;10.054;2023-12-14T04:00:20;100803.94;;;5.15;100.00
48824;BME280;34640;53.590;10.054;2023-12-14T04:02:59;100819.66;;;5.18;100.00
48824;BME280;34640;53.590;10.054;2023-12-14T04:05:32;100821.13;;;5.04;100.00
48824;BME280;34640;53.590;10.054;2023-12-14T04:08:05;100824.88;;;5.08;100.00
48824;BME280;34640;53.590;10.054;2023-12-14T04:10:40;100824.31;;;5.12;100.00
48824;BME280;34640;53.590;10.054;2023-12-14T04:13:12;100832.09;;;5.02;100.00
48824;BME280;34640;53.590;10.054;2023-12-14T04:15:46;100826.66;;;5.09;100.00
48824;BME280;34640;53.590;10.054;2023-12-14T04:18:19;100829.50;;;5.12;100.00
48824;BME280;34640;53.590;10.054;2023-12-14T04:20:51;100831.41;;;5.25;100.00
48824;BME280;34640;53.590;10.054;2023-12-14T04:23:24;100833.22;;;5.26;100.00
48824;BME280;34640;53.590;10.054;2023-12-14T04:25:59;100826.06;;;5.33;100.00
48824;BME280;34640;53.590;10.054;2023-12-14T04:28:32;100826.75;;;5.31;100.00
48824;BME280;34640;53.590;10.054;2023-12-14T04:31:06;100830.25;;;5.21;100.00
48824;BME280;34640;53.590;10.054;2023-12-14T04:33:39;100839.16;;;5.25;100.00
48824;BME280;34640;53.590;10.054;2023-12-14T04:36:12;100837.72;;;5.28;100.00
48824;BME280;34640;53.590;10.054;2023-12-14T04:38:45;100836.34;;;5.21;100.00
48824;BME280;34640;53.590;10.054;2023-12-14T04:41:19;100838.22;;;5.34;100.00
48824;BME280;34640;53.590;10.054;2023-12-14T04:43:52;100842.63;;;5.25;100.00
48824;BME280;34640;53.590;10.054;2023-12-14T04:46:25;100846.78;;;5.23;100.00
48824;BME280;34640;53.590;10.054;2023-12-14T04:48:59;100853.75;;;5.24;100.00
48824;BME280;34640;53.590;10.054;2023-12-14T04:51:32;100859.03;;;5.26;100.00
48824;BME280;34640;53.590;10.054;2023-12-14T04:54:05;100863.66;;;5.30;100.00
48824;BME280;34640;53.590;10.054;2023-12-14T04:56:40;100867.69;;;5.26;100.00
48824;BME280;34640;53.590;10.054;2023-12-14T04:59:16;100874.28;;;5.22;100.00
48824;BME280;34640;53.590;10.054;2023-12-14T05:01:50;100878.25;;;5.19;100.00
48824;BME280;34640;53.590;10.054;2023-12-14T05:04:23;100883.03;;;5.14;100.00
48824;BME280;34640;53.590;10.054;2023-12-14T05:06:56;100888.22;;;5.25;100.00
48824;BME280;34640;53.590;10.054;2023-12-14T05:09:30;100887.50;;;5.47;100.00
48824;BME280;34640;53.590;10.054;2023-12-14T05:12:05;100886.84;;;5.40;100.00
48824;BME280;34640;53.590;10.054;2023-12-14T05:14:38;100882.63;;;5.30;100.00
48824;BME280;34640;53.590;10.054;2023-12-14T05:17:11;100890.09;;;5.37;100.00
48824;BME280;34640;53.590;10.054;2023-12-14T05:19:45;100892.72;;;5.27;100.00
48824;BME280;34640;53.590;10.054;2023-12-14T05:22:18;100899.81;;;5.30;100.00
48824;BME280;34640;53.590;10.054;2023-12-14T05:24:51;100904.47;;;5.24;100.00
48824;BME280;34640;53.590;10.054;2023-12-14T05:27:25;100901.25;;;5.26;100.00
48824;BME280;34640;53.590;10.054;2023-12-14T05:29:58;100911.44;;;5.25;100.00
48824;BME280;34640;53.590;10.054;2023-12-14T05:32:31;100928.19;;;5.19;100.00
48824;BME280;34640;53.590;10.054;2023-12-14T05:35:05;100935.44;;;5.24;100.00
48824;BME280;34640;53.590;10.054;2023-12-14T05:37:39;100935.69;;;5.16;100.00
48824;BME280;34640;53.590;10.054;2023-12-14T05:40:13;100937.63;;;5.19;100.00
48824;BME280;34640;53.590;10.054;2023-12-14T05:42:47;100946.78;;;5.15;100.00
48824;BME280;34640;53.590;10.054;2023-12-14T05:45:20;100942.66;;;5.17;100.00
48824;BME280;34640;53.590;10.054;2023-12-14T05:47:53;100948.72;;;5.18;100.00
48824;BME280;34640;53.590;10.054;2023-12-14T05:50:26;100950.81;;;5.12;100.00
48824;BME280;34640;53.590;10.054;2023-12-14T05:52:59;100956.88;;;5.12;100.00
48824;BME280;34640;53.590;10.054;2023-12-14T05:55:32;100963.59;;;5.10;100.00
48824;BME280;34640;53.590;10.054;2023-12-14T05:58:11;100971.44;;;5.12;100.00
48824;BME280;34640;53.590;10.054;2023-12-14T06:00:44;100976.50;;;5.10;100.00
48824;BME280;34640;53.590;10.054;2023-12-14T06:03:17;100979.19;;;5.12;100.00
48824;BME280;34640;53.590;10.054;2023-12-14T06:05:50;100977.38;;;5.11;100.00
48824;BME280;34640;53.590;10.054;2023-12-14T06:08:23;100978.28;;;5.11;100.00
48824;BME280;34640;53.590;10.054;2023-12-14T06:10:56;100983.72;;;5.04;100.00
48824;BME280;34640;53.590;10.054;2023-12-14T06:13:31;100988.88;;;5.04;100.00
48824;BME280;34640;53.590;10.054;2023-12-14T06:16:07;100979.59;;;5.06;100.00
48824;BME280;34640;53.590;10.054;2023-12-14T06:18:44;100982.81;;;5.04;100.00
48824;BME280;34640;53.590;10.054;2023-12-14T06:21:18;100995.06;;;5.06;100.00
48824;BME280;34640;53.590;10.054;2023-12-14T06:23:51;101000.75;;;5.02;100.00
48824;BME280;34640;53.590;10.054;2023-12-14T06:26:24;101004.88;;;5.00;100.00
48824;BME280;34640;53.590;10.054;2023-12-14T06:28:59;101005.13;;;4.93;100.00
48824;BME280;34640;53.590;10.054;2023-12-14T06:31:33;101006.28;;;4.97;100.00
48824;BME280;34640;53.590;10.054;2023-12-14T06:34:06;101011.19;;;4.94;100.00
48824;BME280;34640;53.590;10.054;2023-12-14T06:36:42;101018.28;;;4.96;100.00
48824;BME280;34640;53.590;10.054;2023-12-14T06:39:15;101025.63;;;4.91;100.00
48824;BME280;34640;53.590;10.054;2023-12-14T06:41:52;101034.13;;;4.90;100.00
48824;BME280;34640;53.590;10.054;2023-12-14T06:44:26;101038.41;;;4.90;100.00
48824;BME280;34640;53.590;10.054;2023-12-14T06:46:59;101043.69;;;4.91;100.00
48824;BME280;34640;53.590;10.054;2023-12-14T06:49:32;101045.50;;;4.93;100.00
48824;BME280;34640;53.590;10.054;2023-12-14T06:52:05;101053.63;;;4.97;100.00
48824;BME280;34640;53.590;10.054;2023-12-14T06:54:38;101055.03;;;4.94;100.00
48824;BME280;34640;53.590;10.054;2023-12-14T06:57:12;101057.38;;;4.90;100.00
48824;BME280;34640;53.590;10.054;2023-12-14T06:59:46;101057.88;;;4.97;100.00
48824;BME280;34640;53.590;10.054;2023-12-14T07:02:20;101052.47;;;4.94;100.00
48824;BME280;34640;53.590;10.054;2023-12-14T07:04:53;101055.56;;;4.89;100.00
48824;BME280;34640;53.590;10.054;2023-12-14T07:07:26;101060.97;;;4.93;100.00
48824;BME280;34640;53.590;10.054;2023-12-14T07:09:59;101054.06;;;5.02;100.00
48824;BME280;34640;53.590;10.054;2023-12-14T07:12:33;101048.34;;;4.96;100.00
48824;BME280;34640;53.590;10.054;2023-12-14T07:15:08;101058.13;;;4.89;100.00
48824;BME280;34640;53.590;10.054;2023-12-14T07:17:41;101067.53;;;4.79;100.00
48824;BME280;34640;53.590;10.054;2023-12-14T07:20:14;101075.69;;;4.83;100.00
48824;BME280;34640;53.590;10.054;2023-12-14T07:22:47;101073.88;;;4.82;100.00
48824;BME280;34640;53.590;10.054;2023-12-14T07:25:20;101085.88;;;4.82;100.00
48824;BME280;34640;53.590;10.054;2023-12-14T07:27:53;101095.16;;;4.80;100.00
48824;BME280;34640;53.590;10.054;2023-12-14T07:30:27;101099.81;;;4.84;100.00
48824;BME280;34640;53.590;10.054;2023-12-14T07:33:00;101112.84;;;4.85;100.00
48824;BME280;34640;53.590;10.054;2023-12-14T07:35:34;101124.97;;;4.86;100.00
48824;BME280;34640;53.590;10.054;2023-12-14T07:38:06;101126.00;;;4.88;100.00
48824;BME280;34640;53.590;10.054;2023-12-14T07:40:41;101135.91;;;4.84;100.00
48824;BME280;34640;53.590;10.054;2023-12-14T07:43:14;101138.00;;;4.88;100.00
48824;BME280;34640;53.590;10.054;2023-12-14T07:45:48;101140.19;;;4.83;100.00
48824;BME280;34640;53.590;10.054;2023-12-14T07:48:21;101142.22;;;4.77;100.00
48824;BME280;34640;53.590;10.054;2023-12-14T07:50:54;101145.06;;;4.80;100.00
48824;BME280;34640;53.590;10.054;2023-12-14T07:53:27;101144.16;;;4.80;100.00
48824;BME280;34640;53.590;10.054;2023-12-14T07:56:00;101148.69;;;4.82;100.00
48824;BME280;34640;53.590;10.054;2023-12-14T07:58:34;101151.00;;;4.79;100.00
48824;BME280;34640;53.590;10.054;2023-12-14T08:01:08;101154.50;;;4.80;100.00
48824;BME280;34640;53.590;10.054;2023-12-14T08:03:41;101163.25;;;4.82;100.00
48824;BME280;34640;53.590;10.054;2023-12-14T08:06:14;101162.00;;;4.87;100.00
48824;BME280;34640;53.590;10.054;2023-12-14T08:08:47;101157.88;;;4.89;100.00
48824;BME280;34640;53.590;10.054;2023-12-14T08:11:23;101172.06;;;4.94;100.00
48824;BME280;34640;53.590;10.054;2023-12-14T08:13:55;101171.28;;;4.95;100.00
48824;BME280;34640;53.590;10.054;2023-12-14T08:16:30;101176.97;;;4.91;100.00
48824;BME280;34640;53.590;10.054;2023-12-14T08:19:03;101177.59;;;4.88;100.00
48824;BME280;34640;53.590;10.054;2023-12-14T08:21:35;101187.94;;;4.99;100.00
48824;BME280;34640;53.590;10.054;2023-12-14T08:24:10;101192.00;;;5.05;100.00
48824;BME280;34640;53.590;10.054;2023-12-14T08:26:43;101195.09;;;5.01;100.00
48824;BME280;34640;53.590;10.054;2023-12-14T08:29:17;101194.19;;;5.01;100.00
48824;BME280;34640;53.590;10.054;2023-12-14T08:31:51;101198.56;;;5.02;100.00
48824;BME280;34640;53.590;10.054;2023-12-14T08:34:25;101206.03;;;4.99;100.00
48824;BME280;34640;53.590;10.054;2023-12-14T08:37:00;101205.13;;;4.98;100.00
48824;BME280;34640;53.590;10.054;2023-12-14T08:39:33;101212.91;;;5.08;100.00
48824;BME280;34640;53.590;10.054;2023-12-14T08:42:06;101211.50;;;5.12;100.00
48824;BME280;34640;53.590;10.054;2023-12-14T08:44:39;101222.47;;;5.09;100.00
48824;BME280;34640;53.590;10.054;2023-12-14T08:47:13;101224.09;;;4.99;100.00
48824;BME280;34640;53.590;10.054;2023-12-14T08:49:46;101224.09;;;4.99;100.00
48824;BME280;34640;53.590;10.054;2023-12-14T08:52:19;101237.28;;;5.02;100.00
48824;BME280;34640;53.590;10.054;2023-12-14T08:54:52;101239.22;;;5.04;100.00
48824;BME280;34640;53.590;10.054;2023-12-14T08:57:25;101245.06;;;5.12;100.00
48824;BME280;34640;53.590;10.054;2023-12-14T08:59:58;101247.50;;;5.10;100.00
48824;BME280;34640;53.590;10.054;2023-12-14T09:02:32;101245.66;;;4.99;100.00
48824;BME280;34640;53.590;10.054;2023-12-14T09:05:07;101246.72;;;5.01;100.00
48824;BME280;34640;53.590;10.054;2023-12-14T09:07:41;101256.13;;;5.01;100.00
48824;BME280;34640;53.590;10.054;2023-12-14T09:10:14;101257.44;;;5.06;100.00
48824;BME280;34640;53.590;10.054;2023-12-14T09:12:47;101255.06;;;4.99;100.00
48824;BME280;34640;53.590;10.054;2023-12-14T09:15:20;101254.91;;;4.97;100.00
48824;BME280;34640;53.590;10.054;2023-12-14T09:17:54;101263.09;;;5.02;100.00
48824;BME280;34640;53.590;10.054;2023-12-14T09:20:28;101256.28;;;5.12;100.00
48824;BME280;34640;53.590;10.054;2023-12-14T09:23:01;101268.28;;;5.12;100.00
48824;BME280;34640;53.590;10.054;2023-12-14T09:25:34;101279.53;;;5.12;100.00
48824;BME280;34640;53.590;10.054;2023-12-14T09:28:07;101280.84;;;5.17;100.00
48824;BME280;34640;53.590;10.054;2023-12-14T09:30:40;101274.91;;;5.18;100.00
48824;BME280;34640;53.590;10.054;2023-12-14T09:33:14;101287.53;;;5.15;100.00
48824;BME280;34640;53.590;10.054;2023-12-14T09:35:48;101291.03;;;5.16;100.00
48824;BME280;34640;53.590;10.054;2023-12-14T09:38:20;101292.44;;;5.12;100.00
48824;BME280;34640;53.590;10.054;2023-12-14T09:40:53;101289.22;;;5.15;100.00
48824;BME280;34640;53.590;10.054;2023-12-14T09:43:26;101286.91;;;5.18;100.00
48824;BME280;34640;53.590;10.054;2023-12-14T09:46:00;101294.31;;;5.24;100.00
48824;BME280;34640;53.590;10.054;2023-12-14T09:48:35;101294.03;;;5.20;100.00
48824;BME280;34640;53.590;10.054;2023-12-14T09:51:09;101292.78;;;5.26;100.00
48824;BME280;34640;53.590;10.054;2023-12-14T09:53:43;101290.81;;;5.23;100.00
48824;BME280;34640;53.590;10.054;2023-12-14T09:56:16;101288.88;;;5.20;100.00
48824;BME280;34640;53.590;10.054;2023-12-14T09:58:49;101292.78;;;5.26;100.00
48824;BME280;34640;53.590;10.054;2023-12-14T10:01:23;101294.84;;;5.30;100.00
48824;BME280;34640;53.590;10.054;2023-12-14T10:04:11;101302.59;;;5.30;100.00
48824;BME280;34640;53.590;10.054;2023-12-14T10:06:47;101299.34;;;5.22;100.00
48824;BME280;34640;53.590;10.054;2023-12-14T10:09:23;101306.31;;;5.23;100.00
48824;BME280;34640;53.590;10.054;2023-12-14T10:12:02;101311.63;;;5.25;100.00
48824;BME280;34640;53.590;10.054;2023-12-14T10:14:36;101314.19;;;5.25;100.00
48824;BME280;34640;53.590;10.054;2023-12-14T10:17:18;101313.94;;;5.21;100.00
48824;BME280;34640;53.590;10.054;2023-12-14T10:19:52;101315.09;;;5.25;100.00
48824;BME280;34640;53.590;10.054;2023-12-14T10:22:26;101314.88;;;5.32;100.00
48824;BME280;34640;53.590;10.054;2023-12-14T10:25:04;101321.63;;;5.40;100.00
48824;BME280;34640;53.590;10.054;2023-12-14T10:27:41;101326.72;;;5.49;100.00
48824;BME280;34640;53.590;10.054;2023-12-14T10:30:14;101330.09;;;5.58;100.00
48824;BME280;34640;53.590;10.054;2023-12-14T10:32:48;101338.22;;;5.52;100.00
48824;BME280;34640;53.590;10.054;2023-12-14T10:35:23;101337.31;;;5.52;100.00
48824;BME280;34640;53.590;10.054;2023-12-14T10:37:58;101335.59;;;5.42;100.00
48824;BME280;34640;53.590;10.054;2023-12-14T10:40:34;101345.44;;;5.46;100.00
48824;BME280;34640;53.590;10.054;2023-12-14T10:43:08;101349.41;;;5.43;100.00
48824;BME280;34640;53.590;10.054;2023-12-14T10:45:47;101349.41;;;5.43;100.00
48824;BME280;34640;53.590;10.054;2023-12-14T10:48:26;101360.56;;;5.52;100.00
48824;BME280;34640;53.590;10.054;2023-12-14T10:51:01;101365.34;;;5.58;100.00
48824;BME280;34640;53.590;10.054;2023-12-14T10:53:35;101369.69;;;5.67;100.00
48824;BME280;34640;53.590;10.054;2023-12-14T10:56:11;101371.81;;;5.63;100.00
48824;BME280;34640;53.590;10.054;2023-12-14T10:58:45;101368.63;;;5.65;100.00
48824;BME280;34640;53.590;10.054;2023-12-14T11:01:21;101377.97;;;5.73;100.00
48824;BME280;34640;53.590;10.054;2023-12-14T11:03:56;101377.84;;;5.72;100.00
48824;BME280;34640;53.590;10.054;2023-12-14T11:06:36;101392.81;;;5.76;100.00
48824;BME280;34640;53.590;10.054;2023-12-14T11:09:09;101392.44;;;5.71;100.00
48824;BME280;34640;53.590;10.054;2023-12-14T11:11:56;101391.59;;;5.62;100.00
48824;BME280;34640;53.590;10.054;2023-12-14T11:14:31;101397.38;;;5.60;100.00
48824;BME280;34640;53.590;10.054;2023-12-14T11:17:06;101398.22;;;5.69;100.00
48824;BME280;34640;53.590;10.054;2023-12-14T11:19:39;101408.38;;;5.57;100.00
48824;BME280;34640;53.590;10.054;2023-12-14T11:22:23;101414.25;;;5.65;100.00
48824;BME280;34640;53.590;10.054;2023-12-14T11:24:56;101413.47;;;5.66;100.00
48824;BME280;34640;53.590;10.054;2023-12-14T11:27:30;101413.47;;;5.66;100.00
48824;BME280;34640;53.590;10.054;2023-12-14T11:30:04;101411.66;;;5.65;100.00
48824;BME280;34640;53.590;10.054;2023-12-14T11:32:39;101407.84;;;5.61;100.00
48824;BME280;34640;53.590;10.054;2023-12-14T11:35:13;101415.28;;;5.67;100.00
48824;BME280;34640;53.590;10.054;2023-12-14T11:37:47;101420.78;;;5.61;100.00
48824;BME280;34640;53.590;10.054;2023-12-14T11:40:21;101423.34;;;5.61;100.00
48824;BME280;34640;53.590;10.054;2023-12-14T11:42:58;101429.44;;;5.62;100.00
48824;BME280;34640;53.590;10.054;2023-12-14T11:45:31;101428.53;;;5.61;100.00
48824;BME280;34640;53.590;10.054;2023-12-14T11:48:05;101424.91;;;5.59;100.00
48824;BME280;34640;53.590;10.054;2023-12-14T11:50:40;101430.66;;;5.65;100.00
48824;BME280;34640;53.590;10.054;2023-12-14T11:53:16;101434.03;;;5.74;100.00
48824;BME280;34640;53.590;10.054;2023-12-14T11:55:49;101438.69;;;5.78;100.00
48824;BME280;34640;53.590;10.054;2023-12-14T11:58:24;101440.16;;;5.85;100.00
48824;BME280;34640;53.590;10.054;2023-12-14T12:01:10;101436.19;;;5.89;100.00
48824;BME280;34640;53.590;10.054;2023-12-14T12:03:44;101443.22;;;5.81;100.00
48824;BME280;34640;53.590;10.054;2023-12-14T12:06:21;101445.28;;;5.75;100.00
48824;BME280;34640;53.590;10.054;2023-12-14T12:08:56;101449.94;;;5.79;100.00
48824;BME280;34640;53.590;10.054;2023-12-14T12:11:30;101445.25;;;5.65;100.00
48824;BME280;34640;53.590;10.054;2023-12-14T12:14:05;101443.84;;;5.68;100.00
48824;BME280;34640;53.590;10.054;2023-12-14T12:16:38;101439.63;;;5.60;100.00
48824;BME280;34640;53.590;10.054;2023-12-14T12:19:11;101445.25;;;5.65;100.00
48824;BME280;34640;53.590;10.054;2023-12-14T12:21:44;101444.16;;;5.63;100.00
48824;BME280;34640;53.590;10.054;2023-12-14T12:24:18;101452.69;;;5.62;100.00
48824;BME280;34640;53.590;10.054;2023-12-14T12:26:58;101449.44;;;5.54;100.00
48824;BME280;34640;53.590;10.054;2023-12-14T12:29:31;101454.53;;;5.44;100.00
48824;BME280;34640;53.590;10.054;2023-12-14T12:32:04;101454.53;;;5.44;100.00
48824;BME280;34640;53.590;10.054;2023-12-14T12:34:36;101459.91;;;5.37;100.00
48824;BME280;34640;53.590;10.054;2023-12-14T12:37:10;101458.50;;;5.40;100.00
48824;BME280;34640;53.590;10.054;2023-12-14T12:39:44;101465.97;;;5.37;100.00
48824;BME280;34640;53.590;10.054;2023-12-14T12:42:17;101455.63;;;5.37;100.00
48824;BME280;34640;53.590;10.054;2023-12-14T12:44:50;101467.16;;;5.41;100.00
48824;BME280;34640;53.590;10.054;2023-12-14T12:47:23;101462.69;;;5.30;100.00
48824;BME280;34640;53.590;10.054;2023-12-14T12:49:58;101473.78;;;5.29;100.00
48824;BME280;34640;53.590;10.054;2023-12-14T12:52:31;101462.16;;;5.24;100.00
48824;BME280;34640;53.590;10.054;2023-12-14T12:55:06;101460.75;;;5.27;100.00
48824;BME280;34640;53.590;10.054;2023-12-14T12:57:41;101468.34;;;5.26;100.00
48824;BME280;34640;53.590;10.054;2023-12-14T13:00:15;101461.03;;;5.30;100.00
48824;BME280;34640;53.590;10.054;2023-12-14T13:02:49;101462.41;;;5.27;100.00
48824;BME280;34640;53.590;10.054;2023-12-14T13:05:23;101472.25;;;5.31;100.00
48824;BME280;34640;53.590;10.054;2023-12-14T13:07:57;101475.25;;;5.35;100.00
48824;BME280;34640;53.590;10.054;2023-12-14T13:10:34;101477.34;;;5.39;100.00
48824;BME280;34640;53.590;10.054;2023-12-14T13:13:09;101483.41;;;5.40;100.00
48824;BME280;34640;53.590;10.054;2023-12-14T13:15:44;101481.94;;;5.33;100.00